Time;durP1;ratioP1;P1;durP2;ratioP2;P2;SDS_P1;SDS_P2;PMS_P1;PMS_P2;Temp;Humidity;BMP_temperature;BMP_pressure;BME280_temperature;BME280_humidity;BME280_pressure;Samples;Min_cycle;Max_cycle;Signal;HPM_P1;HPM_P2
2022/03/20 00:00:08;;;;;;;29.40;15.07;;;;;;;1.44;93.44;97855.47;4938702;28;20042;-70
2022/03/20 00:02:43;;;;;;;23.92;14.82;;;;;;;1.41;93.70;97849.69;4938667;28;20047;-69
2022/03/20 00:05:09;;;;;;;28.02;14.50;;;;;;;1.45;92.63;97851.84;4938989;28;20073;-70
2022/03/20 00:07:35;;;;;;;26.45;13.20;;;;;;;1.50;92.64;97857.47;4940271;28;20361;-70
2022/03/20 00:10:04;;;;;;;27.73;14.07;;;;;;;1.47;92.35;97846.41;4938289;28;20469;-70
2022/03/20 00:12:30;;;;;;;24.02;13.32;;;;;;;1.46;91.90;97844.75;4938044;28;20118;-69
2022/03/20 00:14:56;;;;;;;23.85;14.38;;;;;;;1.46;92.17;97839.47;4938519;28;20046;-71
2022/03/20 00:17:22;;;;;;;30.50;13.38;;;;;;;1.39;91.79;97834.00;4938460;28;20046;-71
2022/03/20 00:19:48;;;;;;;25.75;10.18;;;;;;;1.28;92.26;97816.63;4939032;28;20035;-71
2022/03/20 00:22:15;;;;;;;27.50;14.05;;;;;;;1.37;91.58;97836.78;4942001;28;20462;-69
2022/03/20 00:24:43;;;;;;;22.60;11.60;;;;;;;1.38;91.73;97827.91;4943562;28;20367;-69
2022/03/20 00:27:10;;;;;;;31.02;14.55;;;;;;;1.42;91.47;97833.69;4942121;28;20506;-70
2022/03/20 00:29:36;;;;;;;24.75;12.52;;;;;;;1.26;92.59;97818.63;4940798;28;20101;-71
2022/03/20 00:32:03;;;;;;;29.02;15.27;;;;;;;1.33;92.97;97822.28;4941153;28;20043;-69
2022/03/20 00:34:28;;;;;;;29.20;14.60;;;;;;;1.42;91.10;97812.59;4942357;28;20150;-70
2022/03/20 00:36:55;;;;;;;23.85;11.18;;;;;;;1.46;91.22;97813.09;4942681;28;20487;-70
2022/03/20 00:39:20;;;;;;;31.50;14.00;;;;;;;1.50;90.84;97811.81;4940705;28;20039;-71
2022/03/20 00:41:46;;;;;;;21.75;11.80;;;;;;;1.38;90.71;97800.69;4945526;28;20042;-70
2022/03/20 00:44:11;;;;;;;28.25;14.48;;;;;;;1.39;90.69;97810.25;4943504;28;20046;-70
2022/03/20 00:46:37;;;;;;;27.60;13.52;;;;;;;1.29;90.59;97805.09;4944091;28;20043;-71
2022/03/20 00:49:02;;;;;;;24.17;14.15;;;;;;;1.24;91.80;97807.38;4943793;28;20043;-70
2022/03/20 00:51:28;;;;;;;25.65;12.88;;;;;;;1.21;92.60;97797.16;4944878;28;20429;-70
2022/03/20 00:53:53;;;;;;;23.15;13.07;;;;;;;1.22;91.51;97796.16;4945164;28;20462;-70
2022/03/20 00:56:19;;;;;;;54.83;12.30;;;;;;;1.16;91.43;97794.16;4942633;28;20042;-70
2022/03/20 00:58:46;;;;;;;33.70;15.07;;;;;;;1.14;90.98;97788.22;4941191;28;20126;-71
2022/03/20 01:01:13;;;;;;;22.90;11.45;;;;;;;1.08;92.30;97786.19;4942213;28;20445;-69
2022/03/20 01:03:41;;;;;;;22.02;11.73;;;;;;;1.09;92.03;97790.50;4942571;28;20050;-69
2022/03/20 01:06:07;;;;;;;25.75;11.57;;;;;;;1.08;92.65;97780.91;4942601;28;20529;-71
2022/03/20 01:08:34;;;;;;;27.38;14.13;;;;;;;1.13;90.86;97783.09;4941169;28;20097;-70
2022/03/20 01:11:01;;;;;;;28.38;14.50;;;;;;;1.16;91.20;97772.22;4943581;28;20035;-69
2022/03/20 01:13:27;;;;;;;25.88;13.25;;;;;;;1.14;91.42;97767.13;4945091;28;20047;-70
2022/03/20 01:15:53;;;;;;;27.83;14.40;;;;;;;1.11;92.47;97757.72;4943862;28;20035;-70
2022/03/20 01:18:19;;;;;;;28.52;14.73;;;;;;;1.08;91.62;97765.09;4941719;28;20564;-71
2022/03/20 01:20:45;;;;;;;23.00;11.82;;;;;;;1.03;93.40;97764.75;4944696;28;20059;-71
2022/03/20 01:23:10;;;;;;;25.17;11.88;;;;;;;1.00;92.39;97760.63;4944039;28;20070;-70
2022/03/20 01:25:36;;;;;;;28.25;14.23;;;;;;;1.07;92.95;97750.28;4940185;28;20073;-71
2022/03/20 01:28:02;;;;;;;26.38;13.10;;;;;;;1.14;91.68;97747.84;4941117;28;20658;-70
2022/03/20 01:30:27;;;;;;;34.97;14.27;;;;;;;1.19;91.88;97738.47;4940852;28;20541;-70
2022/03/20 01:32:53;;;;;;;32.75;15.73;;;;;;;1.19;91.70;97743.75;4943083;28;20071;-70
2022/03/20 01:35:18;;;;;;;28.20;14.00;;;;;;;1.19;92.48;97735.84;4942276;28;20154;-70
2022/03/20 01:37:44;;;;;;;29.83;15.43;;;;;;;1.20;91.66;97726.94;4940856;28;20118;-70
2022/03/20 01:40:10;;;;;;;24.52;11.95;;;;;;;1.23;92.57;97723.97;4940716;28;20101;-70
2022/03/20 01:42:38;;;;;;;29.33;15.32;;;;;;;1.25;93.01;97711.47;4942290;28;20498;-69
2022/03/20 01:45:21;;;;;;;32.75;16.23;;;;;;;1.17;93.45;97719.38;4941212;28;20114;-70
2022/03/20 01:47:49;;;;;;;28.13;12.48;;;;;;;1.09;92.48;97708.78;4940546;28;20058;-70
2022/03/20 01:50:20;;;;;;;33.15;15.50;;;;;;;1.15;92.40;97709.94;4940045;28;20051;-70
2022/03/20 01:52:47;;;;;;;25.60;15.00;;;;;;;1.10;91.90;97702.53;4940808;28;20182;-71
2022/03/20 01:55:13;;;;;;;28.88;15.57;;;;;;;1.07;91.68;97705.44;4941691;28;20430;-70
2022/03/20 01:57:39;;;;;;;38.55;24.08;;;;;;;1.11;91.72;97704.16;4941655;28;20047;-70
2022/03/20 02:00:06;;;;;;;26.55;13.35;;;;;;;1.07;92.07;97705.44;4938767;28;20074;-69
2022/03/20 02:02:38;;;;;;;29.80;14.63;;;;;;;1.06;92.26;97706.44;4940295;28;20528;-70
2022/03/20 02:05:09;;;;;;;23.73;12.43;;;;;;;0.92;92.53;97697.31;4940840;28;20126;-71
2022/03/20 02:07:34;;;;;;;31.60;16.50;;;;;;;0.93;92.18;97698.13;4940446;28;20051;-70
2022/03/20 02:10:01;;;;;;;19.38;11.32;;;;;;;0.92;93.85;97705.22;4942058;28;20044;-70
2022/03/20 02:12:28;;;;;;;24.05;11.07;;;;;;;0.96;93.50;97708.38;4940645;28;20040;-70
2022/03/20 02:14:55;;;;;;;29.65;15.52;;;;;;;1.00;91.94;97702.63;4940617;28;20076;-70
2022/03/20 02:17:21;;;;;;;28.70;15.25;;;;;;;1.00;93.17;97699.16;4938174;28;20043;-69
2022/03/20 02:19:46;;;;;;;34.30;15.25;;;;;;;1.00;93.30;97699.16;4939851;28;20032;-70
2022/03/20 02:22:12;;;;;;;31.30;14.98;;;;;;;1.02;93.76;97699.84;4939214;28;20073;-69
2022/03/20 02:24:44;;;;;;;25.70;13.02;;;;;;;1.06;94.38;97701.16;4941257;28;20110;-70
2022/03/20 02:27:18;;;;;;;26.20;14.43;;;;;;;1.08;93.61;97683.38;4940392;28;20046;-69
2022/03/20 02:29:47;;;;;;;26.70;12.77;;;;;;;1.14;92.72;97688.03;4940216;28;20077;-70
2022/03/20 02:32:16;;;;;;;33.22;14.35;;;;;;;1.13;93.56;97685.53;4939609;28;20367;-70
2022/03/20 02:34:47;;;;;;;26.70;14.52;;;;;;;1.17;92.74;97681.59;4940947;28;20040;-71
2022/03/20 02:37:13;;;;;;;30.88;14.32;;;;;;;1.18;94.02;97673.53;4939318;28;20039;-69
2022/03/20 02:39:39;;;;;;;25.45;12.05;;;;;;;1.16;93.12;97677.31;4941098;28;20035;-70
2022/03/20 02:42:06;;;;;;;34.10;16.73;;;;;;;1.19;93.11;97669.09;4939373;28;20043;-69
2022/03/20 02:44:48;;;;;;;30.55;15.18;;;;;;;1.17;92.76;97671.03;4937300;28;20055;-71
2022/03/20 02:47:14;;;;;;;33.00;16.27;;;;;;;1.13;93.55;97672.38;4939139;28;20488;-71
2022/03/20 02:49:41;;;;;;;26.05;13.52;;;;;;;1.07;94.22;97661.47;4902435;28;1110399;-69
2022/03/20 02:52:07;;;;;;;33.35;15.18;;;;;;;1.02;94.93;97670.84;4934581;28;20047;-70
2022/03/20 02:54:32;;;;;;;32.60;16.73;;;;;;;0.99;94.42;97664.06;4938746;28;20312;-70
2022/03/20 02:56:58;;;;;;;23.67;11.73;;;;;;;0.90;95.54;97666.84;4935871;28;20506;-70
2022/03/20 02:59:23;;;;;;;28.00;15.75;;;;;;;0.89;95.25;97662.56;4935608;28;20027;-69
2022/03/20 03:01:49;;;;;;;27.17;13.38;;;;;;;0.85;94.62;97662.03;4936357;28;20043;-70
2022/03/20 03:04:14;;;;;;;27.02;14.98;;;;;;;0.81;96.92;97656.25;4933957;28;20270;-71
2022/03/20 03:06:40;;;;;;;32.05;15.15;;;;;;;0.77;96.48;97656.72;4937520;28;20066;-70
2022/03/20 03:11:49;;;;;;;25.85;12.85;;;;;;;0.69;98.15;97643.50;4932833;28;20039;-70
2022/03/20 03:16:59;;;;;;;29.65;15.85;;;;;;;0.66;98.64;97636.75;4939433;28;20035;-70
2022/03/20 03:19:24;;;;;;;31.58;15.15;;;;;;;0.59;99.38;97635.72;4933644;28;20089;-70
2022/03/20 03:21:50;;;;;;;36.08;15.98;;;;;;;0.56;99.18;97628.16;4936129;28;20146;-70
2022/03/20 03:24:15;;;;;;;31.67;12.48;;;;;;;0.56;99.64;97628.16;4924437;28;20043;-70
2022/03/20 03:26:41;;;;;;;28.63;13.40;;;;;;;0.58;98.98;97633.25;4938835;28;20135;-70
2022/03/20 03:29:07;;;;;;;32.05;16.33;;;;;;;0.58;99.22;97638.53;4933866;28;20130;-69
2022/03/20 03:31:33;;;;;;;29.52;13.50;;;;;;;0.55;98.81;97634.41;4934039;28;20511;-70
2022/03/20 03:36:43;;;;;;;29.35;13.52;;;;;;;0.60;99.95;97634.75;4934556;28;20044;-71
2022/03/20 03:39:09;;;;;;;32.78;15.75;;;;;;;0.55;99.70;97631.78;4934151;28;20050;-70
2022/03/20 03:41:36;;;;;;;37.13;16.90;;;;;;;0.58;99.00;97628.81;4935050;28;20447;-70
2022/03/20 03:44:01;;;;;;;31.63;16.02;;;;;;;0.54;100.00;97632.72;4936759;28;20396;-71
2022/03/20 03:46:28;;;;;;;33.03;16.35;;;;;;;0.55;100.00;97629.97;4938772;28;20059;-70
2022/03/20 03:48:56;;;;;;;34.67;14.82;;;;;;;0.55;100.00;97618.59;4935700;28;20437;-70
2022/03/20 03:51:21;;;;;;;30.02;16.52;;;;;;;0.54;100.00;97615.16;4935775;28;20762;-69
2022/03/20 03:53:47;;;;;;;28.20;14.60;;;;;;;0.50;100.00;97618.25;4941874;28;20055;-70
2022/03/20 03:56:12;;;;;;;29.02;14.60;;;;;;;0.49;100.00;97611.31;4943086;28;20445;-70
2022/03/20 03:58:38;;;;;;;31.85;14.95;;;;;;;0.46;100.00;97608.97;4947917;28;20198;-69
2022/03/20 04:01:03;;;;;;;17.13;9.55;;;;;;;0.46;100.00;97608.97;4933517;28;20500;-70
2022/03/20 04:03:28;;;;;;;30.95;16.20;;;;;;;0.50;100.00;97602.44;4947554;28;20433;-69
2022/03/20 04:06:00;;;;;;;31.52;16.58;;;;;;;0.48;100.00;97604.41;4945145;28;20035;-70
2022/03/20 04:08:26;;;;;;;33.15;16.23;;;;;;;0.47;100.00;97600.94;4943158;28;20040;-71
2022/03/20 04:10:51;;;;;;;24.67;12.57;;;;;;;0.45;100.00;97591.53;4945674;28;20043;-69
2022/03/20 04:13:18;;;;;;;28.42;13.65;;;;;;;0.42;100.00;97597.94;4928024;28;20556;-70
2022/03/20 04:15:43;;;;;;;34.75;17.58;;;;;;;0.36;100.00;97590.66;4945615;28;20043;-70
2022/03/20 04:18:09;;;;;;;28.10;15.93;;;;;;;0.34;100.00;97590.00;4944173;28;20122;-70
2022/03/20 04:20:35;;;;;;;20.65;10.05;;;;;;;0.35;100.00;97581.13;4931746;28;20113;-69
2022/03/20 04:25:45;;;;;;;20.52;10.85;;;;;;;0.41;100.00;97583.13;4944605;28;20042;-70
2022/03/20 04:28:10;;;;;;;32.78;16.38;;;;;;;0.37;100.00;97573.88;4942328;28;20101;-69
2022/03/20 04:30:36;;;;;;;33.75;14.85;;;;;;;0.35;100.00;97577.66;4943921;28;20049;-70
2022/03/20 04:33:02;;;;;;;22.05;11.45;;;;;;;0.35;100.00;97567.97;4947410;28;20047;-70
2022/03/20 04:35:28;;;;;;;33.72;15.60;;;;;;;0.42;100.00;97576.06;4943311;28;20050;-69
2022/03/20 04:37:55;;;;;;;20.20;11.38;;;;;;;0.41;100.00;97550.72;4942984;28;20043;-71
2022/03/20 04:40:21;;;;;;;36.42;18.05;;;;;;;0.35;100.00;97552.16;4944904;28;20057;-69
2022/03/20 04:42:46;;;;;;;29.67;15.10;;;;;;;0.31;100.00;97563.16;4946548;28;20055;-71
2022/03/20 04:45:13;;;;;;;24.20;13.27;;;;;;;0.32;100.00;97551.66;4929778;28;20615;-69
2022/03/20 04:58:37;;;;;;;23.55;13.35;;;;;;;0.28;100.00;97545.88;4943363;28;20827;-70
2022/03/20 05:01:02;;;;;;;35.17;16.42;;;;;;;0.27;100.00;97552.94;4943049;28;20053;-70
2022/03/20 05:03:31;;;;;;;33.97;16.25;;;;;;;0.22;100.00;97543.84;4944188;28;20043;-71
2022/03/20 05:05:57;;;;;;;37.28;17.95;;;;;;;0.17;100.00;97536.44;4944469;28;20046;-70
2022/03/20 05:08:23;;;;;;;26.52;13.68;;;;;;;0.17;100.00;97533.81;4945962;28;20043;-71
2022/03/20 05:13:33;;;;;;;21.00;11.45;;;;;;;0.18;100.00;97517.03;4944435;28;20051;-70
2022/03/20 05:15:58;;;;;;;34.10;16.52;;;;;;;0.17;100.00;97523.28;4943899;28;20042;-71
2022/03/20 05:18:24;;;;;;;37.75;17.33;;;;;;;0.18;100.00;97524.09;4940956;28;20035;-70
2022/03/20 05:20:52;;;;;;;32.20;17.17;;;;;;;0.16;100.00;97526.09;4943136;28;20047;-69
2022/03/20 05:23:19;;;;;;;25.35;13.18;;;;;;;0.16;100.00;97533.97;4942380;28;20537;-71
2022/03/20 05:25:44;;;;;;;30.05;15.50;;;;;;;0.19;100.00;97541.56;4943426;28;20143;-70
2022/03/20 05:28:10;;;;;;;24.42;12.80;;;;;;;0.18;100.00;97540.72;4943941;28;20054;-71
2022/03/20 05:30:35;;;;;;;33.58;15.85;;;;;;;0.22;100.00;97544.69;4944566;28;20047;-69
2022/03/20 05:33:01;;;;;;;27.27;14.10;;;;;;;0.20;100.00;97535.31;4944577;28;20525;-69
2022/03/20 05:35:26;;;;;;;33.40;15.15;;;;;;;0.24;100.00;97540.09;4946439;28;20067;-69
2022/03/20 05:37:54;;;;;;;28.10;13.30;;;;;;;0.26;100.00;97545.22;4944674;28;20039;-69
2022/03/20 05:40:19;;;;;;;35.67;16.45;;;;;;;0.35;100.00;97560.06;4942648;28;20786;-71
2022/03/20 05:42:45;;;;;;;33.60;15.60;;;;;;;0.32;100.00;97564.81;4943926;28;20178;-70
2022/03/20 05:45:11;;;;;;;24.55;13.20;;;;;;;0.35;100.00;97561.88;4940782;28;20465;-70
2022/03/20 05:47:38;;;;;;;28.45;13.63;;;;;;;0.38;100.00;97558.91;4942901;28;20908;-69
2022/03/20 05:50:05;;;;;;;37.83;17.65;;;;;;;0.41;100.00;97559.44;4940578;28;20050;-69
2022/03/20 05:52:31;;;;;;;26.02;14.88;;;;;;;0.39;100.00;97561.41;4943171;28;20126;-70
2022/03/20 05:55:00;;;;;;;25.70;13.02;;;;;;;0.39;100.00;97552.66;4943194;28;20043;-69
2022/03/20 06:00:16;;;;;;;30.80;14.70;;;;;;;0.33;100.00;97548.03;4945132;28;20050;-69
2022/03/20 06:02:45;;;;;;;32.42;16.33;;;;;;;0.32;100.00;97546.41;4945009;28;20054;-70
2022/03/20 06:05:12;;;;;;;32.70;17.15;;;;;;;0.33;100.00;97550.69;4943105;28;20461;-69
2022/03/20 06:07:46;;;;;;;39.05;19.33;;;;;;;0.33;100.00;97534.88;4944218;28;20507;-69
2022/03/20 06:10:19;;;;;;;29.92;14.80;;;;;;;0.31;100.00;97524.47;4942510;28;20428;-69
2022/03/20 06:12:46;;;;;;;37.05;16.05;;;;;;;0.31;100.00;97539.44;4946183;28;20302;-71
2022/03/20 06:15:12;;;;;;;31.13;14.82;;;;;;;0.36;100.00;97550.34;4942399;28;20656;-70
2022/03/20 06:17:46;;;;;;;35.15;18.40;;;;;;;0.42;100.00;97555.00;4941955;28;20047;-70
2022/03/20 06:20:14;;;;;;;36.20;17.48;;;;;;;0.46;100.00;97540.50;4939819;28;20159;-70
2022/03/20 06:22:41;;;;;;;25.30;15.15;;;;;;;0.54;100.00;97545.81;4940755;28;20055;-69
2022/03/20 06:25:08;;;;;;;30.48;16.35;;;;;;;0.54;100.00;97540.53;4943119;28;20098;-70
2022/03/20 06:27:45;;;;;;;33.72;17.00;;;;;;;0.61;100.00;97541.56;4944293;28;20123;-70
2022/03/20 06:30:13;;;;;;;34.80;18.52;;;;;;;0.68;100.00;97553.09;4941355;28;20546;-70
2022/03/20 06:32:39;;;;;;;40.97;18.52;;;;;;;0.77;100.00;97553.94;4943731;28;20406;-70
2022/03/20 06:35:05;;;;;;;41.05;17.20;;;;;;;0.84;100.00;97541.78;4939002;28;20710;-70
2022/03/20 06:37:36;;;;;;;30.98;15.68;;;;;;;0.93;100.00;97532.91;4941935;28;20141;-70
2022/03/20 06:40:01;;;;;;;28.90;15.13;;;;;;;1.06;100.00;97543.00;4942128;28;20045;-70
2022/03/20 06:42:28;;;;;;;30.63;15.35;;;;;;;1.14;100.00;97531.63;4942857;28;20355;-70
2022/03/20 06:44:54;;;;;;;32.70;15.15;;;;;;;1.26;100.00;97535.63;4939652;28;20055;-70
2022/03/20 06:47:21;;;;;;;40.03;20.02;;;;;;;1.28;100.00;97537.09;4940584;28;20067;-70
2022/03/20 06:49:47;;;;;;;24.42;14.43;;;;;;;1.26;100.00;97538.25;4935728;28;20055;-71
2022/03/20 06:52:13;;;;;;;26.63;13.98;;;;;;;1.26;100.00;97541.72;4913252;29;20454;-69
2022/03/20 06:54:38;;;;;;;32.20;14.25;;;;;;;1.32;100.00;97537.56;4914607;29;20040;-69
2022/03/20 06:57:04;;;;;;;34.25;18.33;;;;;;;1.41;100.00;97541.91;4916640;29;20356;-70
2022/03/20 06:59:29;;;;;;;23.52;14.35;;;;;;;1.46;100.00;97544.84;4914716;29;20315;-69
2022/03/20 07:01:55;;;;;;;46.03;18.42;;;;;;;1.51;100.00;97531.16;4916242;29;20131;-70
2022/03/20 07:04:21;;;;;;;36.83;17.08;;;;;;;1.66;100.00;97547.97;4914457;29;21166;-69
2022/03/20 07:06:47;;;;;;;28.45;13.55;;;;;;;1.77;100.00;97552.91;4913953;29;20098;-69
2022/03/20 07:09:12;;;;;;;32.83;16.90;;;;;;;1.87;100.00;97537.75;4912860;29;20058;-69
2022/03/20 07:11:38;;;;;;;26.92;13.98;;;;;;;1.97;100.00;97542.00;4916051;29;20081;-70
2022/03/20 07:14:03;;;;;;;40.38;18.08;;;;;;;2.19;100.00;97551.88;4914366;29;20044;-70
2022/03/20 07:16:31;;;;;;;40.08;17.80;;;;;;;2.39;100.00;97552.28;4915654;29;20438;-69
2022/03/20 07:18:57;;;;;;;28.63;15.55;;;;;;;2.51;100.00;97559.69;4913304;29;20589;-69
2022/03/20 07:21:23;;;;;;;30.58;16.05;;;;;;;2.56;100.00;97558.34;4913518;29;20043;-69
2022/03/20 07:23:48;;;;;;;24.83;13.23;;;;;;;2.69;100.00;97559.44;4912344;29;20408;-69
2022/03/20 07:31:42;;;;;;;38.70;17.83;;;;;;;2.57;100.00;97568.75;4912872;29;20055;-69
2022/03/20 07:34:07;;;;;;;38.75;19.83;;;;;;;2.55;100.00;97561.97;4913315;29;20466;-70
2022/03/20 07:36:33;;;;;;;28.63;14.95;;;;;;;2.56;100.00;97556.50;4914405;29;20067;-69
2022/03/20 07:38:59;;;;;;;23.10;14.73;;;;;;;2.41;100.00;97547.66;4914113;29;20067;-71
2022/03/20 07:41:24;;;;;;;39.97;18.52;;;;;;;2.35;100.00;97566.84;4913242;29;20098;-69
2022/03/20 07:43:51;;;;;;;33.38;15.90;;;;;;;2.48;100.00;97562.66;4898514;29;20051;-70
2022/03/20 07:46:17;;;;;;;29.92;15.73;;;;;;;2.57;100.00;97567.91;4915605;29;20507;-69
2022/03/20 07:48:42;;;;;;;26.17;14.90;;;;;;;2.72;100.00;97537.97;4916809;29;20138;-70
2022/03/20 07:51:08;;;;;;;28.85;15.00;;;;;;;2.84;100.00;97556.91;4933260;28;20047;-70
2022/03/20 07:53:33;;;;;;;27.30;15.23;;;;;;;2.98;100.00;97540.31;4942185;28;20086;-69
2022/03/20 07:55:59;;;;;;;36.22;17.48;;;;;;;2.99;100.00;97552.53;4942649;28;20043;-70
2022/03/20 07:58:24;;;;;;;29.20;16.27;;;;;;;2.94;100.00;97556.66;4939269;28;20046;-69
2022/03/20 08:00:50;;;;;;;34.13;15.05;;;;;;;3.01;100.00;97545.22;4942019;28;20055;-70
2022/03/20 08:03:15;;;;;;;25.00;13.70;;;;;;;3.08;99.01;97546.19;4940193;28;20035;-70
2022/03/20 08:05:41;;;;;;;34.00;18.50;;;;;;;3.15;99.85;97548.13;4940462;28;20473;-70
2022/03/20 08:08:11;;;;;;;39.37;20.07;;;;;;;3.06;99.19;97532.31;4253988;28;10000975;-71
2022/03/20 08:10:36;;;;;;;31.92;16.95;;;;;;;3.08;99.22;97517.09;4940611;28;20524;-69
2022/03/20 08:13:02;;;;;;;28.15;14.25;;;;;;;3.24;99.89;97550.53;4938044;28;20047;-71
2022/03/20 08:15:27;;;;;;;25.58;13.90;;;;;;;3.37;98.40;97542.03;4937427;28;20086;-69
2022/03/20 08:17:53;;;;;;;27.63;14.15;;;;;;;3.56;98.49;97567.19;4939913;28;20491;-70
2022/03/20 08:20:19;;;;;;;33.80;20.83;;;;;;;3.53;97.15;97538.44;4935516;28;20395;-69
2022/03/20 08:22:45;;;;;;;32.17;15.18;;;;;;;3.73;98.40;97557.28;4942751;28;20051;-70
2022/03/20 08:25:11;;;;;;;30.88;17.63;;;;;;;3.69;96.45;97556.00;4938064;28;20200;-70
2022/03/20 08:27:43;;;;;;;22.27;13.45;;;;;;;3.81;97.24;97544.81;4939840;28;20058;-69
2022/03/20 08:30:11;;;;;;;33.78;15.23;;;;;;;3.89;95.87;97547.41;4938022;28;20122;-69
2022/03/20 08:32:37;;;;;;;36.45;22.48;;;;;;;3.92;94.58;97538.25;4939132;28;20043;-70
2022/03/20 08:35:05;;;;;;;39.47;19.15;;;;;;;4.23;94.01;97526.69;4938267;28;20049;-70
2022/03/20 08:37:32;;;;;;;26.15;15.50;;;;;;;4.22;94.05;97538.31;4938106;28;20039;-70
2022/03/20 08:39:58;;;;;;;31.60;17.73;;;;;;;4.09;95.39;97545.03;4937598;28;20134;-69
2022/03/20 08:42:23;;;;;;;29.80;18.15;;;;;;;4.08;95.73;97546.03;4941217;28;20046;-69
2022/03/20 08:44:52;;;;;;;32.03;18.67;;;;;;;4.11;96.52;97539.56;4940191;28;20039;-69
2022/03/20 08:47:18;;;;;;;30.13;16.67;;;;;;;4.13;95.78;97543.69;4942538;28;20050;-70
2022/03/20 08:49:44;;;;;;;31.88;18.40;;;;;;;4.00;96.34;97532.06;4942516;28;20456;-70
2022/03/20 08:52:09;;;;;;;25.83;13.60;;;;;;;4.12;96.08;97536.72;4943891;28;20047;-69
2022/03/20 08:54:35;;;;;;;32.85;19.17;;;;;;;4.08;95.52;97535.44;4943649;28;20043;-69
2022/03/20 08:57:01;;;;;;;27.05;14.18;;;;;;;4.10;95.65;97530.78;4942035;28;20050;-69
2022/03/20 08:59:27;;;;;;;26.83;16.23;;;;;;;4.14;96.29;97537.38;4939837;28;20281;-69
2022/03/20 09:01:52;;;;;;;36.45;18.88;;;;;;;4.12;96.16;97531.41;4941175;28;20040;-70
2022/03/20 09:04:18;;;;;;;27.90;15.65;;;;;;;4.08;96.18;97543.41;4940912;28;20509;-70
2022/03/20 09:06:47;;;;;;;29.25;15.48;;;;;;;4.27;97.19;97554.47;4942820;28;20043;-70
2022/03/20 09:09:14;;;;;;;25.25;13.65;;;;;;;4.56;96.02;97554.47;4939199;28;20074;-70
2022/03/20 09:11:41;;;;;;;24.20;14.10;;;;;;;5.24;92.06;97555.91;4941451;28;20058;-69
2022/03/20 09:14:08;;;;;;;27.80;16.42;;;;;;;5.60;91.61;97552.34;4939749;28;20092;-70
2022/03/20 09:19:21;;;;;;;30.45;17.85;;;;;;;5.65;86.09;97541.19;4943046;28;20553;-69
2022/03/20 09:21:46;;;;;;;38.83;17.70;;;;;;;5.61;89.27;97502.75;4943960;28;20094;-70
2022/03/20 09:24:12;;;;;;;29.92;17.25;;;;;;;5.49;88.93;97555.53;4941639;28;20073;-70
2022/03/20 09:26:37;;;;;;;37.25;18.05;;;;;;;5.64;88.32;97566.09;4943385;28;20147;-70
2022/03/20 09:29:04;;;;;;;30.65;16.80;;;;;;;5.68;86.45;97546.94;4946697;28;20375;-69
2022/03/20 09:31:31;;;;;;;28.98;19.15;;;;;;;5.84;84.95;97554.63;4913944;28;20058;-69
2022/03/20 09:33:57;;;;;;;24.90;15.15;;;;;;;5.96;86.48;97589.50;4942956;28;20043;-70
2022/03/20 09:36:23;;;;;;;34.67;17.35;;;;;;;6.39;85.72;97570.81;4939574;28;20110;-70
2022/03/20 09:38:49;;;;;;;36.42;19.02;;;;;;;6.66;85.06;97571.78;4942739;28;21156;-70
2022/03/20 09:41:16;;;;;;;26.55;15.45;;;;;;;6.70;79.79;97559.75;4942808;28;20073;-70
2022/03/20 09:43:44;;;;;;;29.50;16.75;;;;;;;6.56;82.15;97556.19;4943222;28;20055;-70
2022/03/20 09:46:10;;;;;;;28.75;16.83;;;;;;;6.66;80.49;97574.44;4942386;28;20062;-70
2022/03/20 09:48:36;;;;;;;25.23;13.70;;;;;;;6.54;81.69;97576.03;4941840;28;20057;-70
2022/03/20 09:51:05;;;;;;;29.60;16.95;;;;;;;6.32;83.46;97561.97;4939438;28;20051;-71
2022/03/20 09:53:31;;;;;;;26.73;15.30;;;;;;;6.71;82.69;97569.34;4943326;28;20379;-70
2022/03/20 09:55:58;;;;;;;29.60;17.63;;;;;;;6.86;80.44;97569.22;4944012;28;20560;-69
2022/03/20 09:58:28;;;;;;;32.63;16.92;;;;;;;6.95;81.45;97566.19;4941269;28;20142;-70
2022/03/20 10:00:55;;;;;;;30.92;15.63;;;;;;;6.99;79.99;97564.75;4943032;28;20058;-70
2022/03/20 10:03:25;;;;;;;30.73;15.77;;;;;;;6.58;80.86;97563.97;4942971;28;21331;-70
2022/03/20 10:06:06;;;;;;;39.22;19.20;;;;;;;6.76;80.71;97569.56;4942910;28;20066;-69
2022/03/20 10:08:33;;;;;;;36.38;20.58;;;;;;;7.28;82.21;97560.16;4941116;28;20051;-70
2022/03/20 10:11:15;;;;;;;30.02;19.23;;;;;;;7.56;78.23;97578.69;4940254;28;20507;-70
2022/03/20 10:14:04;;;;;;;32.15;17.92;;;;;;;8.10;74.14;97575.84;4942641;28;20054;-69
2022/03/20 10:16:29;;;;;;;30.88;17.25;;;;;;;8.07;72.50;97578.91;4943372;28;20591;-71
2022/03/20 10:18:55;;;;;;;27.02;14.88;;;;;;;8.34;72.21;97573.59;4942878;28;20039;-69
2022/03/20 10:21:20;;;;;;;23.45;14.43;;;;;;;7.80;70.93;97561.28;4942656;28;20039;-70
2022/03/20 10:23:46;;;;;;;35.25;15.95;;;;;;;8.10;70.54;97564.38;4944361;28;20059;-70
2022/03/20 10:26:14;;;;;;;34.67;18.85;;;;;;;8.55;70.36;97553.88;4940574;28;20126;-69
2022/03/20 10:28:41;;;;;;;29.55;16.20;;;;;;;8.88;65.34;97548.44;4939677;28;20529;-70
2022/03/20 10:31:09;;;;;;;33.80;15.93;;;;;;;9.25;62.81;97560.19;4943104;28;20548;-70
2022/03/20 10:33:40;;;;;;;31.65;16.30;;;;;;;10.22;58.01;97550.06;4941742;28;20049;-70
2022/03/20 10:36:16;;;;;;;30.20;19.27;;;;;;;9.80;54.85;97562.31;4943466;28;20043;-70
2022/03/20 10:38:44;;;;;;;29.08;17.98;;;;;;;9.71;56.89;97572.47;4940183;28;20639;-70
2022/03/20 10:41:28;;;;;;;33.88;18.13;;;;;;;9.85;58.40;97586.56;4941943;28;20694;-71
2022/03/20 10:43:55;;;;;;;34.97;17.80;;;;;;;10.42;55.04;97588.19;4942580;28;20118;-70
2022/03/20 10:46:31;;;;;;;23.70;15.48;;;;;;;10.20;54.28;97593.09;4939838;28;20094;-70
2022/03/20 10:49:02;;;;;;;32.13;17.98;;;;;;;10.95;52.31;97592.19;4942825;28;20043;-70
2022/03/20 10:51:38;;;;;;;30.13;16.50;;;;;;;11.50;49.74;97584.91;4942067;28;20166;-70
2022/03/20 10:54:07;;;;;;;34.28;18.80;;;;;;;11.08;51.76;97586.69;4942195;28;20094;-70
2022/03/20 10:56:34;;;;;;;32.55;17.15;;;;;;;11.40;51.12;97590.00;4940900;28;20102;-70
2022/03/20 10:59:10;;;;;;;33.60;18.17;;;;;;;11.47;52.38;97588.06;4941740;28;20070;-70
2022/03/20 11:01:38;;;;;;;22.27;13.13;;;;;;;10.64;54.66;97593.94;4942247;28;20057;-70
2022/03/20 11:04:05;;;;;;;29.35;16.65;;;;;;;11.25;53.65;97585.03;4941238;28;20126;-69
2022/03/20 11:06:31;;;;;;;33.03;18.13;;;;;;;12.69;48.39;97568.84;4941953;28;20065;-70
2022/03/20 11:08:56;;;;;;;27.88;15.20;;;;;;;13.63;45.28;97575.63;4941734;28;20549;-70
2022/03/20 11:11:24;;;;;;;31.50;18.60;;;;;;;14.46;43.42;97559.81;4939961;28;20500;-70
2022/03/20 11:13:52;;;;;;;24.02;14.60;;;;;;;12.54;47.01;97569.31;4943152;28;20066;-70
2022/03/20 11:16:23;;;;;;;33.65;18.83;;;;;;;12.86;47.05;97563.56;4944181;28;20683;-70
2022/03/20 11:18:52;;;;;;;29.40;15.32;;;;;;;13.49;46.87;97560.84;4941846;28;20042;-70
2022/03/20 11:21:22;;;;;;;31.40;16.48;;;;;;;13.95;45.01;97558.97;4940970;28;20554;-69
2022/03/20 11:23:49;;;;;;;27.95;15.48;;;;;;;14.75;42.56;97557.81;4941234;28;20457;-69
2022/03/20 11:26:16;;;;;;;25.13;15.95;;;;;;;14.47;42.88;97550.66;4939908;28;20078;-69
2022/03/20 11:28:45;;;;;;;24.80;16.08;;;;;;;15.14;41.88;97561.28;4940051;28;20051;-70
2022/03/20 11:31:13;;;;;;;;;;;;;;;16.61;39.51;97550.28;4941926;28;20051;-70
2022/03/20 11:33:42;;;;;;;31.50;16.08;;;;;;;16.98;37.98;97542.16;4940404;28;20354;-70
2022/03/20 11:36:08;;;;;;;24.58;15.65;;;;;;;16.08;38.66;97550.16;4940903;28;20097;-71
2022/03/20 11:38:35;;;;;;;28.25;16.92;;;;;;;16.26;40.05;97524.66;4939983;28;20051;-71
2022/03/20 11:41:08;;;;;;;24.00;13.43;;;;;;;17.52;37.64;97534.53;4941856;28;20038;-70
2022/03/20 11:43:40;;;;;;;24.83;14.38;;;;;;;16.13;39.82;97534.03;4941248;28;20455;-71
2022/03/20 11:46:12;;;;;;;26.05;16.08;;;;;;;15.37;41.71;97537.81;4940512;28;20561;-71
2022/03/20 11:48:38;;;;;;;20.83;14.95;;;;;;;14.59;43.16;97546.00;4941052;28;20047;-70
2022/03/20 11:51:03;;;;;;;34.78;17.38;;;;;;;13.54;46.40;97536.75;4940020;28;20050;-69
2022/03/20 11:53:29;;;;;;;25.20;15.23;;;;;;;11.92;55.71;97550.13;4942241;28;20492;-69
2022/03/20 11:55:55;;;;;;;27.80;15.88;;;;;;;10.87;67.02;97567.34;4939948;28;20046;-69